Time;durP1;ratioP1;P1;durP2;ratioP2;P2;SDS_P1;SDS_P2;PMS_P1;PMS_P2;Temp;Humidity;BMP_temperature;BMP_pressure;BME280_temperature;BME280_humidity;BME280_pressure;Samples;Min_cycle;Max_cycle;Signal;HPM_P1;HPM_P2
2021/04/30 00:00:46;;;;;;;20.20;14.23;;;9.80;99.90;;;;;;2079765;28;20036;-67
2021/04/30 00:01:47;;;;;;;18.38;14.40;;;9.80;99.90;;;;;;2079607;28;20476;-68
2021/04/30 00:02:48;;;;;;;18.92;13.13;;;9.80;99.90;;;;;;2078341;28;20029;-68
2021/04/30 00:03:48;;;;;;;20.38;13.45;;;9.80;99.90;;;;;;2079748;28;20026;-67
2021/04/30 00:04:49;;;;;;;18.33;14.32;;;9.80;99.90;;;;;;2079842;28;20026;-67
2021/04/30 00:05:49;;;;;;;17.13;13.63;;;9.80;99.90;;;;;;2079786;28;20021;-67
2021/04/30 00:06:51;;;;;;;17.55;13.18;;;9.80;99.90;;;;;;2079524;28;20059;-67
2021/04/30 00:07:51;;;;;;;25.40;15.02;;;9.80;99.90;;;;;;2087932;28;20111;-67
2021/04/30 00:08:52;;;;;;;21.63;13.43;;;9.80;99.90;;;;;;2087360;28;20548;-67
2021/04/30 00:09:52;;;;;;;17.52;14.13;;;9.80;99.90;;;;;;2082197;28;20079;-67
2021/04/30 00:10:53;;;;;;;23.17;13.68;;;9.80;99.90;;;;;;2079528;28;20032;-67
2021/04/30 00:11:53;;;;;;;24.38;14.43;;;9.80;99.90;;;;;;2079583;28;20076;-67
2021/04/30 00:12:54;;;;;;;21.02;14.93;;;9.80;99.90;;;;;;2079270;28;20033;-67
2021/04/30 00:13:55;;;;;;;22.88;14.68;;;9.80;99.90;;;;;;2079733;28;20037;-67
2021/04/30 00:14:55;;;;;;;20.25;15.25;;;9.80;99.90;;;;;;2079546;28;20473;-67
2021/04/30 00:15:56;;;;;;;20.75;14.35;;;9.80;99.90;;;;;;2079544;28;20025;-68
2021/04/30 00:16:57;;;;;;;24.83;14.93;;;9.80;99.90;;;;;;2079763;28;20487;-68
2021/04/30 00:18:03;;;;;;;22.33;14.73;;;9.80;99.90;;;;;;2079841;28;20017;-68
2021/04/30 00:19:04;;;;;;;20.15;14.65;;;9.80;99.90;;;;;;2086437;28;20107;-67
2021/04/30 00:20:05;;;;;;;19.85;15.20;;;9.80;99.90;;;;;;2086180;28;20041;-67
2021/04/30 00:21:06;;;;;;;19.08;15.30;;;9.80;99.90;;;;;;2079791;28;20033;-67
2021/04/30 00:22:06;;;;;;;19.40;15.23;;;9.80;99.90;;;;;;2079401;28;20036;-67
2021/04/30 00:23:12;;;;;;;23.55;15.23;;;9.80;99.90;;;;;;2078564;28;20032;-67
2021/04/30 00:24:14;;;;;;;22.50;15.57;;;9.80;99.90;;;;;;2078610;28;20029;-67
2021/04/30 00:25:15;;;;;;;23.08;14.10;;;9.80;99.90;;;;;;2079341;28;20041;-67
2021/04/30 00:26:15;;;;;;;23.33;15.75;;;9.80;99.90;;;;;;2079329;28;20032;-67
2021/04/30 00:27:16;;;;;;;20.15;15.00;;;9.80;99.90;;;;;;2087022;28;20420;-68
2021/04/30 00:28:17;;;;;;;21.23;15.13;;;9.80;99.90;;;;;;2087735;28;20033;-67
2021/04/30 00:29:17;;;;;;;19.88;15.90;;;9.80;99.90;;;;;;2087768;28;20025;-67
2021/04/30 00:30:19;;;;;;;21.95;15.57;;;9.80;99.90;;;;;;2087668;28;20017;-67
2021/04/30 00:31:19;;;;;;;22.58;15.20;;;9.90;99.90;;;;;;2087585;28;20063;-68
2021/04/30 00:32:20;;;;;;;25.15;15.38;;;9.80;99.90;;;;;;2087055;28;20047;-67
2021/04/30 00:33:22;;;;;;;21.83;15.57;;;9.90;99.90;;;;;;2087977;28;20029;-68
2021/04/30 00:34:23;;;;;;;22.13;15.00;;;9.90;99.90;;;;;;2086283;28;20032;-67
2021/04/30 00:35:24;;;;;;;22.00;15.48;;;9.90;99.90;;;;;;2080200;28;20056;-67
2021/04/30 00:36:26;;;;;;;21.55;15.60;;;9.90;99.90;;;;;;2079458;28;20036;-67
2021/04/30 00:37:27;;;;;;;17.50;13.20;;;9.90;99.90;;;;;;2079806;28;20039;-67
2021/04/30 00:38:27;;;;;;;25.83;15.88;;;9.90;99.90;;;;;;2079561;28;20120;-67
2021/04/30 00:39:28;;;;;;;20.30;15.63;;;9.90;99.90;;;;;;2079375;28;20033;-67
2021/04/30 00:40:28;;;;;;;24.58;16.02;;;9.90;99.90;;;;;;2079173;28;20037;-67
2021/04/30 00:41:29;;;;;;;24.20;15.43;;;9.90;99.90;;;;;;2083517;28;20516;-67
2021/04/30 00:42:29;;;;;;;22.85;16.25;;;9.90;99.90;;;;;;2086441;28;20024;-67
2021/04/30 00:43:30;;;;;;;26.50;17.30;;;9.90;99.90;;;;;;2087831;28;20558;-67
2021/04/30 00:44:31;;;;;;;27.83;15.88;;;9.90;99.90;;;;;;2087678;28;20082;-67
2021/04/30 00:45:32;;;;;;;24.88;17.95;;;9.90;99.90;;;;;;2087901;28;20025;-67
2021/04/30 00:46:33;;;;;;;26.00;16.92;;;9.90;99.90;;;;;;2087616;28;20025;-67
2021/04/30 00:47:35;;;;;;;25.73;17.27;;;9.90;99.90;;;;;;2087719;28;20025;-67
2021/04/30 00:48:38;;;;;;;23.33;16.35;;;9.90;99.90;;;;;;2087898;28;20334;-67
2021/04/30 00:49:38;;;;;;;23.77;16.95;;;9.90;99.90;;;;;;2080415;28;20033;-67
2021/04/30 00:50:39;;;;;;;26.13;18.33;;;9.90;99.90;;;;;;2079466;28;20079;-68
2021/04/30 00:51:40;;;;;;;18.58;16.10;;;9.90;99.90;;;;;;2079772;28;20207;-68
2021/04/30 00:52:40;;;;;;;24.63;16.40;;;9.90;99.90;;;;;;2078559;28;20079;-67
2021/04/30 00:53:41;;;;;;;23.15;16.42;;;9.90;99.90;;;;;;2079635;28;20032;-67
2021/04/30 00:54:41;;;;;;;24.52;17.77;;;9.90;99.90;;;;;;2079336;28;20030;-67
2021/04/30 00:55:42;;;;;;;22.33;16.38;;;9.90;99.90;;;;;;2085118;28;20095;-67
2021/04/30 00:56:43;;;;;;;23.63;18.23;;;10.00;99.90;;;;;;2079379;28;20030;-68
2021/04/30 00:57:59;;;;;;;19.00;16.50;;;10.00;99.90;;;;;;2079304;28;20389;-67
2021/04/30 00:59:01;;;;;;;20.25;16.35;;;10.00;99.90;;;;;;2079074;28;20025;-67
2021/04/30 01:00:04;;;;;;;22.92;17.58;;;10.00;99.90;;;;;;2078702;28;20411;-67
2021/04/30 01:01:05;;;;;;;22.88;17.17;;;10.00;99.90;;;;;;2079071;28;20048;-67
2021/04/30 01:02:05;;;;;;;21.10;16.33;;;10.00;99.90;;;;;;2079515;28;20049;-67
2021/04/30 01:03:08;;;;;;;21.75;16.58;;;10.00;99.90;;;;;;2079165;28;20037;-67
2021/04/30 01:04:08;;;;;;;22.02;17.63;;;10.00;99.90;;;;;;2083568;28;20032;-67
2021/04/30 01:05:10;;;;;;;26.45;18.02;;;10.00;99.90;;;;;;2086302;28;20024;-68
2021/04/30 01:06:12;;;;;;;24.48;18.60;;;10.10;99.90;;;;;;2086937;28;20020;-67
2021/04/30 01:07:12;;;;;;;21.95;17.25;;;10.00;99.90;;;;;;2083816;28;20380;-67
2021/04/30 01:08:13;;;;;;;26.30;17.75;;;10.10;99.90;;;;;;2087807;28;20032;-67
2021/04/30 01:09:13;;;;;;;24.08;17.73;;;10.10;99.90;;;;;;2087271;28;20111;-68
2021/04/30 01:10:14;;;;;;;25.02;18.40;;;10.10;99.90;;;;;;2087418;28;20146;-67
2021/04/30 01:11:15;;;;;;;21.35;17.33;;;10.10;99.90;;;;;;2087620;28;20025;-67
2021/04/30 01:12:16;;;;;;;21.67;18.35;;;10.10;99.90;;;;;;2082729;28;20346;-67
2021/04/30 01:13:16;;;;;;;28.40;20.40;;;10.10;99.90;;;;;;2080617;28;20380;-67
2021/04/30 01:14:17;;;;;;;21.23;17.30;;;10.10;99.90;;;;;;2081144;28;20108;-67
2021/04/30 01:15:19;;;;;;;22.08;19.17;;;10.10;99.90;;;;;;2081821;28;20025;-67
2021/04/30 01:16:19;;;;;;;24.52;19.10;;;10.10;99.90;;;;;;2081132;28;20033;-67
2021/04/30 01:17:20;;;;;;;24.85;19.13;;;10.10;99.90;;;;;;2080887;28;20531;-67
2021/04/30 01:18:20;;;;;;;24.80;18.88;;;10.10;99.90;;;;;;2080111;28;20030;-67
2021/04/30 01:19:23;;;;;;;23.15;17.77;;;10.00;99.90;;;;;;2080738;28;20025;-67
2021/04/30 01:20:24;;;;;;;24.05;19.02;;;10.00;99.90;;;;;;2081699;28;20064;-67
2021/04/30 01:21:25;;;;;;;26.02;19.85;;;10.00;99.90;;;;;;2080318;28;20060;-67
2021/04/30 01:22:34;;;;;;;23.88;18.75;;;10.00;99.90;;;;;;2079733;28;20072;-67
2021/04/30 01:23:47;;;;;;;29.65;21.30;;;10.00;99.90;;;;;;2084876;28;20045;-67
2021/04/30 01:24:48;;;;;;;27.35;21.38;;;10.00;99.90;;;;;;2088883;28;20455;-67
2021/04/30 01:25:48;;;;;;;28.52;20.48;;;10.00;99.90;;;;;;2089187;28;20234;-67
2021/04/30 01:26:49;;;;;;;31.13;21.27;;;10.00;99.90;;;;;;2089090;28;20060;-67
2021/04/30 01:27:49;;;;;;;26.45;20.27;;;10.00;99.90;;;;;;2089129;28;20017;-67
2021/04/30 01:28:50;;;;;;;31.35;20.27;;;10.00;99.90;;;;;;2089231;28;20026;-67
2021/04/30 01:29:51;;;;;;;27.90;20.85;;;10.00;99.90;;;;;;2089305;28;20024;-67
2021/04/30 01:30:51;;;;;;;23.52;20.48;;;10.00;99.90;;;;;;2082731;28;20083;-67
2021/04/30 01:31:52;;;;;;;27.60;20.63;;;10.00;99.90;;;;;;2080964;28;20023;-67
2021/04/30 01:32:53;;;;;;;28.73;19.45;;;10.00;99.90;;;;;;2080388;28;20029;-67
2021/04/30 01:33:57;;;;;;;24.00;18.58;;;10.00;99.90;;;;;;2081131;28;20021;-67
2021/04/30 01:34:58;;;;;;;24.27;18.83;;;9.90;99.90;;;;;;2080679;28;20384;-67
2021/04/30 01:35:58;;;;;;;22.05;17.85;;;10.00;99.90;;;;;;2075973;28;20064;-67
2021/04/30 01:36:59;;;;;;;23.00;18.77;;;9.90;99.90;;;;;;2080538;28;20500;-67
2021/04/30 01:38:01;;;;;;;28.30;19.90;;;9.90;99.90;;;;;;2080623;28;20524;-68
2021/04/30 01:39:06;;;;;;;24.85;19.25;;;10.00;99.90;;;;;;2078969;28;20028;-67
2021/04/30 01:40:17;;;;;;;23.40;18.23;;;9.90;99.90;;;;;;2074039;28;20075;-67
2021/04/30 01:41:21;;;;;;;;;;;10.00;99.90;;;;;;2081235;28;20072;-67
2021/04/30 01:42:22;;;;;;;26.92;19.13;;;9.90;99.90;;;;;;2080074;28;20383;-67
2021/04/30 01:43:25;;;;;;;25.23;19.13;;;9.90;99.90;;;;;;2080606;28;20037;-68
2021/04/30 01:44:25;;;;;;;28.02;20.35;;;9.90;99.90;;;;;;2080804;28;20022;-67
2021/04/30 01:45:56;;;;;;;27.45;19.73;;;9.90;99.90;;;;;;2080966;28;20022;-67
2021/04/30 01:46:59;;;;;;;26.83;18.30;;;10.00;99.90;;;;;;2078413;28;20117;-67
2021/04/30 01:48:00;;;;;;;30.77;20.45;;;9.90;99.90;;;;;;2080900;28;20132;-67
2021/04/30 01:49:00;;;;;;;23.20;18.85;;;9.90;99.90;;;;;;2080161;28;20108;-67
2021/04/30 01:50:01;;;;;;;26.73;20.60;;;9.90;99.90;;;;;;2086406;28;20021;-67
2021/04/30 01:51:03;;;;;;;26.08;20.17;;;9.90;99.90;;;;;;2075605;28;20033;-67
2021/04/30 01:52:04;;;;;;;23.50;18.15;;;9.90;99.90;;;;;;2080657;28;20044;-67
2021/04/30 01:53:07;;;;;;;25.65;20.17;;;9.90;99.90;;;;;;2079734;28;20034;-67
2021/04/30 01:54:07;;;;;;;27.33;20.55;;;9.90;99.90;;;;;;2081152;28;20032;-67
2021/04/30 01:55:08;;;;;;;30.05;22.02;;;10.00;99.90;;;;;;2083039;28;20053;-67
2021/04/30 01:56:10;;;;;;;30.77;21.38;;;10.00;99.90;;;;;;2083685;28;20029;-68
2021/04/30 01:57:11;;;;;;;30.75;21.52;;;10.00;99.90;;;;;;2079855;28;20033;-67
2021/04/30 01:58:12;;;;;;;27.65;22.02;;;10.00;99.90;;;;;;2080280;28;20457;-67
2021/04/30 01:59:13;;;;;;;28.00;21.42;;;10.00;99.90;;;;;;2075829;28;20036;-67
2021/04/30 02:00:22;;;;;;;27.17;21.75;;;10.00;99.90;;;;;;2080697;28;20372;-67
2021/04/30 02:01:22;;;;;;;31.13;21.23;;;10.00;99.90;;;;;;2081918;28;20491;-67
2021/04/30 02:02:24;;;;;;;29.15;22.33;;;10.00;99.90;;;;;;2081585;28;20025;-67
2021/04/30 02:03:26;;;;;;;32.53;22.80;;;10.00;99.90;;;;;;2082015;28;20048;-67
2021/04/30 02:04:26;;;;;;;28.83;20.45;;;10.00;99.90;;;;;;2082084;28;20029;-67
2021/04/30 02:05:29;;;;;;;29.45;21.77;;;10.00;99.90;;;;;;2081676;28;20392;-68
2021/04/30 02:06:30;;;;;;;23.88;20.00;;;10.00;99.90;;;;;;2082330;28;20021;-67
2021/04/30 02:07:30;;;;;;;30.38;22.02;;;10.00;99.90;;;;;;2081587;28;20120;-67
2021/04/30 02:08:31;;;;;;;29.42;21.73;;;10.00;99.90;;;;;;2082233;28;20021;-67
2021/04/30 02:09:32;;;;;;;27.33;22.27;;;10.00;99.90;;;;;;2082155;28;20026;-67
2021/04/30 02:10:33;;;;;;;24.02;17.73;;;10.00;99.90;;;;;;2082123;28;20037;-68
2021/04/30 02:11:35;;;;;;;27.73;21.58;;;10.00;99.90;;;;;;2081861;28;20108;-68
2021/04/30 02:12:35;;;;;;;29.27;22.00;;;10.00;99.90;;;;;;2081419;28;20041;-68
2021/04/30 02:13:36;;;;;;;30.83;23.48;;;10.00;99.90;;;;;;2081576;28;20469;-67
2021/04/30 02:14:37;;;;;;;31.55;22.88;;;10.00;99.90;;;;;;2082340;28;20029;-67
2021/04/30 02:15:40;;;;;;;30.30;23.60;;;9.90;99.90;;;;;;2081021;28;20041;-67
2021/04/30 02:16:40;;;;;;;29.70;24.83;;;9.90;99.90;;;;;;2081115;28;20033;-67
2021/04/30 02:17:41;;;;;;;31.48;24.27;;;9.90;99.90;;;;;;2073706;28;20030;-67
2021/04/30 02:18:42;;;;;;;31.98;23.25;;;9.90;99.90;;;;;;2077652;28;20036;-67
2021/04/30 02:19:42;;;;;;;31.60;24.80;;;9.90;99.90;;;;;;2081957;28;20072;-67
2021/04/30 02:20:43;;;;;;;27.98;24.42;;;9.90;99.90;;;;;;2081967;28;20041;-67
2021/04/30 02:21:44;;;;;;;36.72;24.80;;;9.90;99.90;;;;;;2083413;28;20481;-67
2021/04/30 02:22:45;;;;;;;32.63;26.13;;;9.90;99.90;;;;;;2089679;28;20489;-67
2021/04/30 02:23:46;;;;;;;29.73;22.40;;;10.00;99.90;;;;;;2089931;28;20025;-67
2021/04/30 02:24:46;;;;;;;33.35;24.27;;;9.90;99.90;;;;;;2089898;28;20055;-68
2021/04/30 02:25:47;;;;;;;34.92;24.75;;;9.90;99.90;;;;;;2089671;28;20021;-67
2021/04/30 02:26:48;;;;;;;38.42;27.08;;;10.00;99.90;;;;;;2089737;28;20025;-68
2021/04/30 02:27:52;;;;;;;39.30;27.80;;;10.00;99.90;;;;;;2090097;28;20037;-68
2021/04/30 02:28:52;;;;;;;33.70;26.80;;;10.00;99.90;;;;;;2090182;28;20108;-67
2021/04/30 02:29:53;;;;;;;38.53;28.52;;;10.00;99.90;;;;;;2090098;28;20028;-67
2021/04/30 02:30:54;;;;;;;33.35;27.02;;;9.90;99.90;;;;;;2090233;28;20028;-67
2021/04/30 02:31:55;;;;;;;38.05;27.98;;;10.00;99.90;;;;;;2089751;28;20522;-68
2021/04/30 02:32:57;;;;;;;35.42;29.65;;;10.00;99.90;;;;;;2089437;28;20059;-67
2021/04/30 02:33:58;;;;;;;38.63;29.67;;;10.00;99.90;;;;;;2089923;28;20420;-68
2021/04/30 02:34:59;;;;;;;35.83;29.48;;;9.90;99.90;;;;;;2090046;28;20104;-67
2021/04/30 02:35:59;;;;;;;38.67;30.05;;;9.90;99.90;;;;;;2087020;28;20025;-67
2021/04/30 02:37:00;;;;;;;38.60;30.60;;;9.90;99.90;;;;;;2081642;28;20025;-67
2021/04/30 02:38:02;;;;;;;36.60;29.60;;;9.90;99.90;;;;;;2081801;28;20018;-67
2021/04/30 02:39:04;;;;;;;39.67;30.17;;;9.90;99.90;;;;;;2081798;28;20491;-67
2021/04/30 02:40:07;;;;;;;36.55;28.83;;;9.90;99.90;;;;;;2081222;28;20520;-67
2021/04/30 02:41:07;;;;;;;43.75;28.83;;;9.90;99.90;;;;;;2082800;28;20075;-67
2021/04/30 02:42:08;;;;;;;35.83;29.27;;;9.90;99.90;;;;;;2089398;28;20094;-68
2021/04/30 02:43:11;;;;;;;44.67;28.05;;;9.90;99.90;;;;;;2089500;28;20538;-67
2021/04/30 02:44:12;;;;;;;37.40;29.15;;;9.90;99.90;;;;;;2087981;28;20025;-67
2021/04/30 02:45:15;;;;;;;34.88;27.70;;;9.90;99.90;;;;;;2081792;28;20049;-68
2021/04/30 02:46:16;;;;;;;38.13;28.88;;;10.00;99.90;;;;;;2081785;28;20407;-67
2021/04/30 02:47:17;;;;;;;36.67;27.00;;;9.90;99.90;;;;;;2081649;28;20148;-68
2021/04/30 02:48:26;;;;;;;35.00;28.38;;;10.00;99.90;;;;;;2081792;28;20025;-68
2021/04/30 02:49:44;;;;;;;35.67;27.63;;;9.90;99.90;;;;;;2081280;28;20029;-67
2021/04/30 02:50:44;;;;;;;37.58;29.50;;;9.90;99.90;;;;;;2082291;28;20022;-67
2021/04/30 02:51:45;;;;;;;36.15;28.85;;;10.00;99.90;;;;;;2090112;28;20074;-67
2021/04/30 02:52:46;;;;;;;38.47;27.27;;;10.00;99.90;;;;;;2089158;28;20032;-67
2021/04/30 02:53:47;;;;;;;35.65;28.10;;;10.00;99.90;;;;;;2090104;28;20036;-67
2021/04/30 02:54:47;;;;;;;36.85;28.27;;;10.00;99.90;;;;;;2089914;28;20040;-67
2021/04/30 02:55:48;;;;;;;37.50;27.73;;;10.00;99.90;;;;;;2087560;28;20021;-67
2021/04/30 02:56:48;;;;;;;38.83;29.50;;;10.00;99.90;;;;;;2081802;28;20029;-68
2021/04/30 02:57:54;;;;;;;38.95;27.95;;;10.00;99.90;;;;;;2081436;28;20025;-68
2021/04/30 02:58:56;;;;;;;37.83;30.17;;;10.00;99.90;;;;;;2081181;28;20030;-68
2021/04/30 02:59:56;;;;;;;36.22;28.70;;;10.00;99.90;;;;;;2080395;28;20029;-67
2021/04/30 03:00:59;;;;;;;43.78;31.95;;;10.00;99.90;;;;;;2077569;28;20030;-67
2021/04/30 03:02:02;;;;;;;39.05;30.33;;;10.00;99.90;;;;;;2080540;28;20048;-67
2021/04/30 03:03:02;;;;;;;39.50;29.73;;;10.00;99.90;;;;;;2073835;28;20030;-67
2021/04/30 03:04:03;;;;;;;44.25;31.50;;;10.00;99.90;;;;;;2083732;28;20082;-67
2021/04/30 03:05:05;;;;;;;42.33;30.58;;;10.00;99.90;;;;;;2083314;28;20013;-68
2021/04/30 03:06:06;;;;;;;39.28;29.23;;;10.00;99.90;;;;;;2087269;28;20098;-67
2021/04/30 03:07:07;;;;;;;44.97;31.23;;;10.00;99.90;;;;;;2085300;28;20070;-67
2021/04/30 03:08:08;;;;;;;42.88;33.65;;;10.00;99.90;;;;;;2088841;28;20021;-68
2021/04/30 03:09:09;;;;;;;40.38;29.42;;;10.00;99.90;;;;;;2088704;28;20025;-67
2021/04/30 03:10:10;;;;;;;40.78;29.85;;;10.00;99.90;;;;;;2088933;28;21013;-67
2021/04/30 03:11:11;;;;;;;43.53;30.58;;;10.00;99.90;;;;;;2087915;28;20021;-67
2021/04/30 03:12:11;;;;;;;44.05;29.90;;;10.00;99.90;;;;;;2087934;28;20017;-67
2021/04/30 03:13:12;;;;;;;39.97;31.75;;;10.00;99.90;;;;;;2088335;28;20079;-68
2021/04/30 03:14:12;;;;;;;39.50;30.67;;;10.00;99.90;;;;;;2088234;28;20086;-67
2021/04/30 03:15:15;;;;;;;38.78;30.80;;;10.00;99.90;;;;;;2088449;28;20029;-68
2021/04/30 03:16:15;;;;;;;39.30;30.42;;;10.00;99.90;;;;;;2088754;28;20020;-68
2021/04/30 03:17:16;;;;;;;42.78;32.95;;;10.00;99.90;;;;;;2088726;28;20039;-67
2021/04/30 03:18:16;;;;;;;43.08;32.33;;;10.00;99.90;;;;;;2088334;28;20407;-68
2021/04/30 03:19:17;;;;;;;42.70;33.55;;;10.00;99.90;;;;;;2084798;28;20041;-68
2021/04/30 03:20:18;;;;;;;44.97;34.45;;;10.10;99.90;;;;;;2079876;28;20029;-67
2021/04/30 03:21:19;;;;;;;46.72;34.78;;;10.00;99.90;;;;;;2080358;28;20025;-67
2021/04/30 03:22:19;;;;;;;47.30;33.38;;;10.00;99.90;;;;;;2079649;28;20044;-67
2021/04/30 03:23:20;;;;;;;48.70;34.45;;;10.10;99.90;;;;;;2080202;28;20754;-67
2021/04/30 03:24:20;;;;;;;49.85;36.50;;;10.10;99.90;;;;;;2080068;28;20025;-67
2021/04/30 03:25:21;;;;;;;42.33;31.20;;;10.10;99.90;;;;;;2080183;28;20053;-68
2021/04/30 03:26:22;;;;;;;46.58;33.22;;;10.10;99.90;;;;;;2080272;28;20033;-67
2021/04/30 03:27:26;;;;;;;42.83;33.53;;;10.10;99.90;;;;;;2080247;28;20105;-67
2021/04/30 03:28:26;;;;;;;50.60;33.90;;;10.10;99.90;;;;;;2079859;28;20036;-67
2021/04/30 03:29:27;;;;;;;40.58;33.15;;;10.10;99.90;;;;;;2080159;28;20033;-67
2021/04/30 03:30:27;;;;;;;42.75;31.55;;;10.10;99.90;;;;;;2079756;28;20480;-68
2021/04/30 03:31:28;;;;;;;46.10;35.50;;;10.10;99.90;;;;;;2080202;28;20033;-67
2021/04/30 03:32:29;;;;;;;45.47;30.67;;;10.10;99.90;;;;;;2079899;28;20407;-67
2021/04/30 03:33:29;;;;;;;47.38;34.45;;;10.10;99.90;;;;;;2080060;28;20172;-67
2021/04/30 03:34:30;;;;;;;44.88;33.05;;;10.10;99.90;;;;;;2079897;28;20527;-67
2021/04/30 03:35:30;;;;;;;47.47;34.28;;;10.10;99.90;;;;;;2088079;28;20037;-67
2021/04/30 03:36:31;;;;;;;47.90;32.97;;;10.10;99.90;;;;;;2079654;28;20037;-68
2021/04/30 03:37:31;;;;;;;42.38;31.98;;;10.10;99.90;;;;;;2080000;28;20052;-68
2021/04/30 03:38:35;;;;;;;46.22;33.15;;;10.10;99.90;;;;;;2085680;28;20036;-68
2021/04/30 03:39:36;;;;;;;41.60;32.28;;;10.10;99.90;;;;;;2081158;28;20132;-68
2021/04/30 03:40:36;;;;;;;49.75;33.28;;;10.10;99.90;;;;;;2080186;28;20452;-67
2021/04/30 03:41:37;;;;;;;45.40;30.05;;;10.10;99.90;;;;;;2079949;28;20040;-67
2021/04/30 03:42:38;;;;;;;42.55;32.38;;;10.10;99.90;;;;;;2079922;28;20037;-67
2021/04/30 03:43:38;;;;;;;51.17;32.88;;;10.10;99.90;;;;;;2076630;28;20025;-67
2021/04/30 03:44:39;;;;;;;46.47;32.53;;;10.10;99.90;;;;;;2082525;28;20075;-67
2021/04/30 03:45:39;;;;;;;51.70;33.28;;;10.10;99.90;;;;;;2080823;28;20026;-67
2021/04/30 03:46:40;;;;;;;42.47;28.55;;;10.10;99.90;;;;;;2087279;28;20029;-67
2021/04/30 03:47:40;;;;;;;45.60;32.47;;;10.10;99.90;;;;;;2088102;28;20048;-67
2021/04/30 03:48:41;;;;;;;46.67;33.42;;;10.20;99.90;;;;;;2079939;28;20021;-67
2021/04/30 03:49:42;;;;;;;41.63;30.90;;;10.10;99.90;;;;;;2079414;28;20459;-68
2021/04/30 03:50:43;;;;;;;43.40;32.05;;;10.10;99.90;;;;;;2080404;28;20072;-67
2021/04/30 03:51:43;;;;;;;53.28;33.65;;;10.10;99.90;;;;;;2088336;28;20041;-68
2021/04/30 03:52:44;;;;;;;46.05;33.35;;;10.10;99.90;;;;;;2087608;28;20506;-67
2021/04/30 03:53:44;;;;;;;52.60;35.10;;;10.10;99.90;;;;;;2088220;28;20113;-67
2021/04/30 03:54:45;;;;;;;47.85;33.83;;;10.10;99.90;;;;;;2088210;28;20028;-67
2021/04/30 03:55:45;;;;;;;47.75;34.30;;;10.20;99.90;;;;;;2086791;28;20056;-68
2021/04/30 03:56:46;;;;;;;45.72;34.53;;;10.10;99.90;;;;;;2080181;28;20033;-68
2021/04/30 03:57:47;;;;;;;43.15;32.85;;;10.20;99.90;;;;;;2079475;28;20033;-67
2021/04/30 03:58:47;;;;;;;43.42;31.38;;;10.20;99.90;;;;;;2080100;28;20096;-67
2021/04/30 03:59:48;;;;;;;44.92;32.67;;;10.20;99.90;;;;;;2079642;28;20117;-67
2021/04/30 04:00:49;;;;;;;44.78;31.23;;;10.20;99.90;;;;;;2079968;28;20123;-67
2021/04/30 04:01:49;;;;;;;42.35;31.70;;;10.20;99.90;;;;;;2080097;28;20041;-67
2021/04/30 04:02:50;;;;;;;47.63;32.88;;;10.20;99.90;;;;;;2079605;28;20508;-67
2021/04/30 04:03:53;;;;;;;47.78;34.17;;;10.20;99.90;;;;;;2081089;28;20351;-68
2021/04/30 04:04:54;;;;;;;49.05;31.33;;;10.20;99.90;;;;;;2088146;28;20021;-67
2021/04/30 04:05:54;;;;;;;49.10;34.28;;;10.20;99.90;;;;;;2088062;28;20035;-68
2021/04/30 04:06:56;;;;;;;48.35;33.22;;;10.20;99.90;;;;;;2084665;28;20013;-67
2021/04/30 04:07:56;;;;;;;52.05;36.30;;;10.20;99.90;;;;;;2088041;28;20052;-67
2021/04/30 04:08:57;;;;;;;49.15;33.78;;;10.20;99.90;;;;;;2088266;28;20106;-67
2021/04/30 04:09:57;;;;;;;52.45;33.65;;;10.20;99.90;;;;;;2087937;28;20051;-67
2021/04/30 04:10:58;;;;;;;52.30;35.03;;;10.20;99.90;;;;;;2088073;28;20032;-67
2021/04/30 04:11:59;;;;;;;51.30;32.70;;;10.20;99.90;;;;;;2087984;28;20036;-67
2021/04/30 04:13:00;;;;;;;48.42;34.35;;;10.10;99.90;;;;;;2087671;28;20040;-67
2021/04/30 04:14:00;;;;;;;41.75;31.17;;;10.10;99.90;;;;;;2088119;28;20029;-67
2021/04/30 04:15:01;;;;;;;41.67;31.23;;;10.20;99.90;;;;;;2088091;28;20469;-67
2021/04/30 04:16:03;;;;;;;42.92;27.90;;;10.10;99.90;;;;;;2088115;28;20384;-67
2021/04/30 04:17:04;;;;;;;52.28;33.13;;;10.20;99.90;;;;;;2083623;28;20029;-67
2021/04/30 04:18:05;;;;;;;48.53;33.92;;;10.10;99.90;;;;;;2080113;28;20048;-67
2021/04/30 04:19:05;;;;;;;50.42;35.20;;;10.20;99.90;;;;;;2079606;28;20033;-67
2021/04/30 04:20:07;;;;;;;56.83;35.30;;;10.20;99.90;;;;;;2079547;28;20648;-68
2021/04/30 04:21:07;;;;;;;43.75;33.25;;;10.10;99.90;;;;;;2080021;28;20029;-68
2021/04/30 04:22:08;;;;;;;44.13;31.33;;;10.10;99.90;;;;;;2079168;28;20018;-68
2021/04/30 04:23:09;;;;;;;51.30;32.85;;;10.10;99.90;;;;;;2076873;28;20096;-68
2021/04/30 04:24:09;;;;;;;50.80;34.53;;;10.10;99.90;;;;;;2075504;28;20076;-68
2021/04/30 04:25:10;;;;;;;45.83;33.20;;;10.10;99.90;;;;;;2082642;28;20037;-68
2021/04/30 04:26:11;;;;;;;54.38;34.15;;;10.10;99.90;;;;;;2082927;28;20051;-67
2021/04/30 04:27:11;;;;;;;50.33;33.25;;;10.00;99.90;;;;;;2079452;28;20025;-68
2021/04/30 04:28:12;;;;;;;49.03;33.17;;;10.00;99.90;;;;;;2075810;28;20388;-68
2021/04/30 04:29:13;;;;;;;50.08;34.45;;;10.00;99.90;;;;;;2079563;28;20052;-67
2021/04/30 04:30:14;;;;;;;52.95;34.35;;;10.00;99.90;;;;;;2079734;28;20064;-67
2021/04/30 04:31:14;;;;;;;56.38;33.97;;;10.00;99.90;;;;;;2079284;28;20034;-67
2021/04/30 04:32:15;;;;;;;47.88;30.63;;;10.00;99.90;;;;;;2079132;28;20032;-67
2021/04/30 04:33:16;;;;;;;51.15;34.47;;;10.00;99.90;;;;;;2079300;28;20032;-67
2021/04/30 04:34:16;;;;;;;48.92;32.70;;;10.10;99.90;;;;;;2072323;28;20030;-68
2021/04/30 04:35:18;;;;;;;56.85;37.25;;;10.00;99.90;;;;;;2083388;28;20040;-68
2021/04/30 04:36:18;;;;;;;51.25;34.53;;;10.00;99.90;;;;;;2083685;28;20031;-68
2021/04/30 04:37:19;;;;;;;47.53;30.30;;;10.00;99.90;;;;;;2079132;28;20033;-68
2021/04/30 04:38:19;;;;;;;49.50;32.47;;;10.10;99.90;;;;;;2087435;28;20025;-67
2021/04/30 04:39:20;;;;;;;39.03;26.08;;;10.10;99.90;;;;;;2087547;28;20032;-67
2021/04/30 04:40:22;;;;;;;40.95;29.23;;;10.10;99.90;;;;;;2072860;28;20037;-67
2021/04/30 04:41:22;;;;;;;47.00;30.40;;;10.10;99.90;;;;;;2073277;28;20032;-67
2021/04/30 04:42:23;;;;;;;40.70;26.35;;;10.00;99.90;;;;;;2073506;28;20033;-67
2021/04/30 04:43:24;;;;;;;40.28;30.67;;;10.10;99.90;;;;;;2073680;28;20033;-67
2021/04/30 04:44:24;;;;;;;36.40;26.85;;;10.10;99.90;;;;;;2075084;28;20025;-67
2021/04/30 04:45:25;;;;;;;41.50;27.08;;;10.10;99.90;;;;;;2071791;28;20037;-68
2021/04/30 04:46:25;;;;;;;44.35;29.38;;;10.10;99.90;;;;;;2071626;28;20026;-68
2021/04/30 04:47:26;;;;;;;46.53;30.02;;;10.10;99.90;;;;;;2073876;28;20032;-67
2021/04/30 04:48:27;;;;;;;44.22;30.45;;;10.10;99.90;;;;;;2075347;28;20021;-68
2021/04/30 04:49:27;;;;;;;50.45;29.17;;;10.00;99.90;;;;;;2076897;28;20030;-68
2021/04/30 04:50:28;;;;;;;43.15;26.73;;;10.10;99.90;;;;;;2073902;28;20053;-67
2021/04/30 04:51:28;;;;;;;49.05;27.67;;;10.00;99.90;;;;;;2075790;28;20424;-67
2021/04/30 04:52:29;;;;;;;43.33;28.15;;;10.00;99.90;;;;;;2075844;28;20026;-68
2021/04/30 04:53:29;;;;;;;46.35;27.65;;;10.10;99.90;;;;;;2075979;28;20029;-68
2021/04/30 04:54:31;;;;;;;48.50;28.17;;;10.00;99.90;;;;;;2076366;28;20033;-68
2021/04/30 04:55:32;;;;;;;52.78;28.52;;;10.00;99.90;;;;;;2078982;28;20549;-68
2021/04/30 04:56:33;;;;;;;50.83;28.90;;;10.10;99.90;;;;;;2074480;28;20357;-68
2021/04/30 04:57:33;;;;;;;46.15;27.08;;;10.10;99.90;;;;;;2076170;28;20026;-68
2021/04/30 04:58:34;;;;;;;45.33;28.55;;;10.10;99.90;;;;;;2079487;28;20547;-68
2021/04/30 04:59:35;;;;;;;47.00;28.40;;;10.10;99.90;;;;;;2081412;28;20034;-67
2021/04/30 05:00:35;;;;;;;39.65;26.15;;;10.10;99.90;;;;;;2075047;28;20041;-68
2021/04/30 05:01:36;;;;;;;35.08;26.25;;;10.10;99.90;;;;;;2074243;28;20018;-68
2021/04/30 05:02:38;;;;;;;36.92;24.65;;;10.00;99.90;;;;;;2075536;28;20042;-67
2021/04/30 05:03:38;;;;;;;41.08;27.25;;;10.00;99.90;;;;;;2074750;28;20021;-67
2021/04/30 05:04:39;;;;;;;44.17;25.92;;;10.00;99.90;;;;;;2077759;28;20488;-68
2021/04/30 05:05:39;;;;;;;41.38;24.35;;;10.00;99.90;;;;;;2077371;28;20381;-67
2021/04/30 05:06:41;;;;;;;38.33;23.55;;;10.00;99.90;;;;;;2074994;28;20022;-67
2021/04/30 05:07:41;;;;;;;35.65;24.77;;;10.00;99.90;;;;;;2079275;28;20026;-68
2021/04/30 05:08:42;;;;;;;35.88;24.63;;;10.10;99.90;;;;;;2081358;28;20024;-67
2021/04/30 05:09:42;;;;;;;30.52;23.48;;;10.00;99.90;;;;;;2082624;28;20025;-68
2021/04/30 05:10:44;;;;;;;41.60;22.25;;;10.10;99.90;;;;;;2082178;28;20373;-68
2021/04/30 05:11:44;;;;;;;29.17;20.92;;;10.10;99.90;;;;;;2082292;28;20022;-67
2021/04/30 05:12:46;;;;;;;39.78;23.77;;;10.10;99.90;;;;;;2081684;28;20025;-68